Time;durP1;ratioP1;P1;durP2;ratioP2;P2;SDS_P1;SDS_P2;PMS_P1;PMS_P2;Temp;Humidity;BMP_temperature;BMP_pressure;BME280_temperature;BME280_humidity;BME280_pressure;Samples;Min_cycle;Max_cycle;Signal;HPM_P1;HPM_P2
2023/08/20 00:00:05;;;;;;;13.17;11.77;;;;;;;;;;5102109;28;20457;-65
2023/08/20 00:02:34;;;;;;;14.80;10.70;;;;;;;;;;5100557;28;20556;-64
2023/08/20 00:05:02;;;;;;;12.90;9.43;;;;;;;;;;5102170;28;20510;-64
2023/08/20 00:07:29;;;;;;;13.83;10.43;;;;;;;;;;5101663;28;20727;-63
2023/08/20 00:09:55;;;;;;;12.40;11.20;;;;;;;;;;5102685;28;20477;-64
2023/08/20 00:12:23;;;;;;;16.53;10.60;;;;;;;;;;5101264;28;20459;-64
2023/08/20 00:14:54;;;;;;;12.17;10.57;;;;;;;;;;5102297;28;20446;-64
2023/08/20 00:17:20;;;;;;;13.07;9.90;;;;;;;;;;5095391;28;20448;-64
2023/08/20 00:19:47;;;;;;;9.30;8.23;;;;;;;;;;5102417;28;20499;-64
2023/08/20 00:22:14;;;;;;;9.73;7.97;;;;;;;;;;5108847;28;20510;-64
2023/08/20 00:24:40;;;;;;;12.23;9.47;;;;;;;;;;5102151;28;20451;-64
2023/08/20 00:27:07;;;;;;;13.40;9.17;;;;;;;;;;5102076;28;20494;-64
2023/08/20 00:29:34;;;;;;;13.10;8.80;;;;;;;;;;5101661;28;21057;-65
2023/08/20 00:32:01;;;;;;;13.93;8.77;;;;;;;;;;5111135;28;20486;-64
2023/08/20 00:34:27;;;;;;;9.10;7.57;;;;;;;;;;5102673;28;20908;-64
2023/08/20 00:36:54;;;;;;;13.07;10.10;;;;;;;;;;5094809;28;20511;-64
2023/08/20 00:39:20;;;;;;;9.43;7.50;;;;;;;;;;5102194;28;20467;-64
2023/08/20 00:41:46;;;;;;;9.27;8.10;;;;;;;;;;5104625;28;20455;-65
2023/08/20 00:44:13;;;;;;;10.77;8.00;;;;;;;;;;5103672;28;20978;-64
2023/08/20 00:46:41;;;;;;;9.77;7.30;;;;;;;;;;5099406;28;20440;-65
2023/08/20 00:49:08;;;;;;;13.30;7.90;;;;;;;;;;5101958;28;20521;-65
2023/08/20 00:51:34;;;;;;;9.50;7.37;;;;;;;;;;5104384;28;20442;-64
2023/08/20 00:54:01;;;;;;;13.00;7.17;;;;;;;;;;5101574;28;20537;-64
2023/08/20 00:56:27;;;;;;;9.10;7.63;;;;;;;;;;5101509;28;21045;-64
2023/08/20 00:58:54;;;;;;;11.43;8.20;;;;;;;;;;5100773;28;21345;-63
2023/08/20 01:01:21;;;;;;;7.60;6.80;;;;;;;;;;5103554;28;20486;-64
2023/08/20 01:03:48;;;;;;;7.93;6.97;;;;;;;;;;5110400;28;20522;-65
2023/08/20 01:06:28;;;;;;;10.40;7.60;;;;;;;;;;5101013;28;20507;-63
2023/08/20 01:08:58;;;;;;;8.83;7.03;;;;;;;;;;5100992;28;20924;-63
2023/08/20 01:11:27;;;;;;;7.97;6.90;;;;;;;;;;5097615;28;20555;-65
2023/08/20 01:13:55;;;;;;;8.80;7.10;;;;;;;;;;5090393;28;20535;-63
2023/08/20 01:16:21;;;;;;;10.47;6.30;;;;;;;;;;5101714;28;20527;-63
2023/08/20 01:18:49;;;;;;;16.30;7.03;;;;;;;;;;5101268;28;20502;-63
2023/08/20 01:21:20;;;;;;;7.37;6.13;;;;;;;;;;5102488;28;20467;-63
2023/08/20 01:23:57;;;;;;;13.93;7.63;;;;;;;;;;5097899;28;20478;-64
2023/08/20 01:26:36;;;;;;;7.83;7.10;;;;;;;;;;5101259;28;20533;-63
2023/08/20 01:29:03;;;;;;;7.43;6.57;;;;;;;;;;5100690;28;20491;-63
2023/08/20 01:31:30;;;;;;;10.57;7.17;;;;;;;;;;5103647;28;21037;-63
2023/08/20 01:33:57;;;;;;;12.63;7.57;;;;;;;;;;5108461;28;20458;-63
2023/08/20 01:36:23;;;;;;;10.63;7.50;;;;;;;;;;5101366;28;20522;-63
2023/08/20 01:38:51;;;;;;;10.30;7.40;;;;;;;;;;5101171;28;20498;-63
2023/08/20 01:41:17;;;;;;;14.07;6.93;;;;;;;;;;5102180;28;20454;-63
2023/08/20 01:43:43;;;;;;;12.03;7.80;;;;;;;;;;5107864;28;20596;-63
2023/08/20 01:46:12;;;;;;;9.80;8.30;;;;;;;;;;5101315;28;20552;-63
2023/08/20 01:48:39;;;;;;;8.87;7.60;;;;;;;;;;5100578;28;20568;-63
2023/08/20 01:51:05;;;;;;;10.83;7.67;;;;;;;;;;5101221;28;20514;-63
2023/08/20 01:53:31;;;;;;;11.00;7.50;;;;;;;;;;5101099;28;20487;-63
2023/08/20 01:55:58;;;;;;;10.13;7.73;;;;;;;;;;5097987;28;20534;-63
2023/08/20 01:58:24;;;;;;;8.70;7.80;;;;;;;;;;5099589;28;20527;-64
2023/08/20 02:00:51;;;;;;;10.03;7.77;;;;;;;;;;5102796;28;20439;-64
2023/08/20 02:03:19;;;;;;;10.87;8.80;;;;;;;;;;5100800;28;20481;-64
2023/08/20 02:05:45;;;;;;;9.30;8.03;;;;;;;;;;5100643;28;20466;-64
2023/08/20 02:08:12;;;;;;;12.23;8.60;;;;;;;;;;5103830;28;20483;-63
2023/08/20 02:10:38;;;;;;;10.10;8.37;;;;;;;;;;5100149;28;20585;-63
2023/08/20 02:13:05;;;;;;;10.70;7.43;;;;;;;;;;5099344;28;21030;-63
2023/08/20 02:15:31;;;;;;;9.17;8.20;;;;;;;;;;5100682;28;20439;-63
2023/08/20 02:17:57;;;;;;;11.27;7.80;;;;;;;;;;5104390;28;20569;-63
2023/08/20 02:20:27;;;;;;;9.17;8.13;;;;;;;;;;5100549;28;20959;-63
2023/08/20 02:22:53;;;;;;;10.70;7.83;;;;;;;;;;5095322;28;20471;-65
2023/08/20 02:25:20;;;;;;;9.73;8.20;;;;;;;;;;5100011;28;20549;-65
2023/08/20 02:27:46;;;;;;;9.67;7.43;;;;;;;;;;5099256;28;20510;-64
2023/08/20 02:30:13;;;;;;;11.87;8.33;;;;;;;;;;5101577;28;20510;-65
2023/08/20 02:32:39;;;;;;;9.30;7.50;;;;;;;;;;5099818;28;20486;-64
2023/08/20 02:35:06;;;;;;;10.37;7.80;;;;;;;;;;5100299;28;20522;-64
2023/08/20 02:37:34;;;;;;;8.57;7.27;;;;;;;;;;5100367;28;20451;-63
2023/08/20 02:40:00;;;;;;;9.97;8.47;;;;;;;;;;5100424;28;21167;-64
2023/08/20 02:42:26;;;;;;;11.80;8.10;;;;;;;;;;5098984;28;20467;-63
2023/08/20 02:44:53;;;;;;;8.40;7.60;;;;;;;;;;5099844;28;20534;-64
2023/08/20 02:47:19;;;;;;;12.27;8.47;;;;;;;;;;5099677;28;20514;-64
2023/08/20 02:49:45;;;;;;;13.33;8.20;;;;;;;;;;5101955;28;20566;-64
2023/08/20 02:52:12;;;;;;;9.13;8.23;;;;;;;;;;5089306;28;20585;-64
2023/08/20 02:54:40;;;;;;;8.77;7.43;;;;;;;;;;5099676;28;21206;-64
2023/08/20 02:57:06;;;;;;;13.43;8.90;;;;;;;;;;5099772;28;20439;-64
2023/08/20 02:59:32;;;;;;;10.40;9.30;;;;;;;;;;5103591;28;20487;-62
2023/08/20 03:01:59;;;;;;;10.30;8.60;;;;;;;;;;5099653;28;20507;-63
2023/08/20 03:04:25;;;;;;;10.30;8.00;;;;;;;;;;5099256;28;20514;-63
2023/08/20 03:06:51;;;;;;;11.77;8.60;;;;;;;;;;5099761;28;20439;-63
2023/08/20 03:09:18;;;;;;;10.87;8.37;;;;;;;;;;5103641;28;20522;-64
2023/08/20 03:11:45;;;;;;;14.30;8.70;;;;;;;;;;5099366;28;20511;-64
2023/08/20 03:14:12;;;;;;;11.70;8.57;;;;;;;;;;5098923;28;20566;-63
2023/08/20 03:16:38;;;;;;;10.90;8.67;;;;;;;;;;5099745;28;20506;-64
2023/08/20 03:19:05;;;;;;;14.30;8.73;;;;;;;;;;5099460;28;20507;-63
2023/08/20 03:21:31;;;;;;;14.07;9.27;;;;;;;;;;5099637;28;20534;-64
2023/08/20 03:23:58;;;;;;;11.17;9.17;;;;;;;;;;5098624;28;20524;-64
2023/08/20 03:26:24;;;;;;;13.13;9.27;;;;;;;;;;5099669;28;20506;-64
2023/08/20 03:28:52;;;;;;;9.50;8.43;;;;;;;;;;5099933;28;20582;-64
2023/08/20 03:31:18;;;;;;;12.63;9.20;;;;;;;;;;5098418;28;20486;-64
2023/08/20 03:33:44;;;;;;;10.77;8.47;;;;;;;;;;5098646;28;20534;-64
2023/08/20 03:36:11;;;;;;;13.40;8.13;;;;;;;;;;5098683;28;20959;-64
2023/08/20 03:38:37;;;;;;;14.37;8.80;;;;;;;;;;5098991;28;20470;-64
2023/08/20 03:41:04;;;;;;;10.10;8.40;;;;;;;;;;5098967;28;20456;-64
2023/08/20 03:43:30;;;;;;;13.80;10.10;;;;;;;;;;5097944;28;20495;-62
2023/08/20 03:45:58;;;;;;;14.90;9.93;;;;;;;;;;5098617;28;21248;-63
2023/08/20 03:48:24;;;;;;;14.03;9.30;;;;;;;;;;5092877;28;20522;-64
2023/08/20 03:50:51;;;;;;;10.20;8.80;;;;;;;;;;5098857;28;20518;-63
2023/08/20 03:53:17;;;;;;;14.53;9.67;;;;;;;;;;5098156;28;20554;-63
2023/08/20 03:55:48;;;;;;;10.67;8.70;;;;;;;;;;5099059;28;20471;-63
2023/08/20 03:58:14;;;;;;;12.57;8.63;;;;;;;;;;5098522;28;20527;-62
2023/08/20 04:00:40;;;;;;;14.10;9.17;;;;;;;;;;5100004;28;20534;-63
2023/08/20 04:03:08;;;;;;;11.13;8.23;;;;;;;;;;5098402;28;21068;-62
2023/08/20 04:05:36;;;;;;;12.07;9.40;;;;;;;;;;5098960;28;20541;-63
2023/08/20 04:08:03;;;;;;;12.67;9.10;;;;;;;;;;5098980;28;20988;-63
2023/08/20 04:10:29;;;;;;;16.00;8.73;;;;;;;;;;5099146;28;20435;-63
2023/08/20 04:12:55;;;;;;;12.50;8.93;;;;;;;;;;5099942;28;20523;-63
2023/08/20 04:15:22;;;;;;;10.03;8.40;;;;;;;;;;5099176;28;20443;-63
2023/08/20 04:17:48;;;;;;;12.30;9.20;;;;;;;;;;5098934;28;20546;-62
2023/08/20 04:20:16;;;;;;;14.17;9.63;;;;;;;;;;5099199;28;20450;-63
2023/08/20 04:22:43;;;;;;;13.53;10.50;;;;;;;;;;5104295;28;20487;-63
2023/08/20 04:25:09;;;;;;;11.00;9.83;;;;;;;;;;5099121;28;20542;-63
2023/08/20 04:27:36;;;;;;;9.97;8.43;;;;;;;;;;5098210;28;20542;-63
2023/08/20 04:30:02;;;;;;;9.70;8.27;;;;;;;;;;5099201;28;20539;-63
2023/08/20 04:32:28;;;;;;;11.30;9.47;;;;;;;;;;5102692;28;20451;-64
2023/08/20 04:34:55;;;;;;;13.40;9.67;;;;;;;;;;5103000;28;20481;-63
2023/08/20 04:37:23;;;;;;;10.80;8.57;;;;;;;;;;5102570;28;20534;-63
2023/08/20 04:39:49;;;;;;;10.60;8.67;;;;;;;;;;5102478;28;20471;-63
2023/08/20 04:42:15;;;;;;;14.80;9.27;;;;;;;;;;5102207;28;20449;-63
2023/08/20 04:44:42;;;;;;;11.17;8.03;;;;;;;;;;5101758;28;20914;-63
2023/08/20 04:47:11;;;;;;;12.57;9.00;;;;;;;;;;5097167;28;20544;-63
2023/08/20 04:49:38;;;;;;;11.00;8.80;;;;;;;;;;5095076;28;20495;-64
2023/08/20 04:52:04;;;;;;;11.57;8.03;;;;;;;;;;5111815;28;20479;-63
2023/08/20 04:54:32;;;;;;;9.63;8.60;;;;;;;;;;5101914;28;20508;-63
2023/08/20 04:56:58;;;;;;;12.20;8.07;;;;;;;;;;5102417;28;20486;-63
2023/08/20 04:59:26;;;;;;;9.43;8.33;;;;;;;;;;5101802;28;20522;-63
2023/08/20 05:01:52;;;;;;;12.30;8.80;;;;;;;;;;5100429;28;20435;-63
2023/08/20 05:04:18;;;;;;;13.17;9.27;;;;;;;;;;5101565;28;20498;-63
2023/08/20 05:06:45;;;;;;;14.17;9.63;;;;;;;;;;5105786;28;20482;-63
2023/08/20 05:09:12;;;;;;;9.30;8.33;;;;;;;;;;5109312;28;20506;-63
2023/08/20 05:11:39;;;;;;;10.00;9.10;;;;;;;;;;5101153;28;20469;-62
2023/08/20 05:14:06;;;;;;;11.23;8.93;;;;;;;;;;5107450;28;20459;-62
2023/08/20 05:16:32;;;;;;;10.40;8.43;;;;;;;;;;5101822;28;20477;-63
2023/08/20 05:18:59;;;;;;;13.67;8.97;;;;;;;;;;5108219;28;20483;-63
2023/08/20 05:21:25;;;;;;;14.80;8.93;;;;;;;;;;5101850;28;20546;-63
2023/08/20 05:23:51;;;;;;;8.20;7.23;;;;;;;;;;5101749;28;20908;-62
2023/08/20 05:26:18;;;;;;;9.40;8.30;;;;;;;;;;5102502;28;20506;-62
2023/08/20 05:28:45;;;;;;;11.07;7.30;;;;;;;;;;5100665;28;20581;-63
2023/08/20 05:31:12;;;;;;;10.03;7.40;;;;;;;;;;5110509;28;20515;-63
2023/08/20 05:33:38;;;;;;;8.23;7.43;;;;;;;;;;5102773;28;20501;-63
2023/08/20 05:36:05;;;;;;;11.13;7.17;;;;;;;;;;5106597;28;20517;-63
2023/08/20 05:38:31;;;;;;;10.50;7.83;;;;;;;;;;5105053;28;20443;-63
2023/08/20 05:40:58;;;;;;;7.97;7.17;;;;;;;;;;5092848;28;20546;-63
2023/08/20 05:43:24;;;;;;;8.80;7.07;;;;;;;;;;5099337;28;20526;-63
2023/08/20 05:45:52;;;;;;;9.03;6.73;;;;;;;;;;5106482;28;20858;-63
2023/08/20 05:48:18;;;;;;;7.80;7.10;;;;;;;;;;5092322;28;20486;-64
2023/08/20 05:50:45;;;;;;;8.23;6.43;;;;;;;;;;5101123;28;20559;-63
2023/08/20 05:53:11;;;;;;;9.47;7.30;;;;;;;;;;5100906;28;20574;-63
2023/08/20 05:55:39;;;;;;;7.23;6.33;;;;;;;;;;5101045;28;20496;-63
2023/08/20 05:58:05;;;;;;;6.53;5.37;;;;;;;;;;5100195;28;20518;-63
2023/08/20 06:00:31;;;;;;;7.80;5.67;;;;;;;;;;5100322;28;20485;-64
2023/08/20 06:02:59;;;;;;;6.47;5.70;;;;;;;;;;5108179;28;20479;-63
2023/08/20 06:05:26;;;;;;;6.73;5.67;;;;;;;;;;5100154;28;20471;-64
2023/08/20 06:07:52;;;;;;;7.27;6.23;;;;;;;;;;5100452;28;20512;-69
2023/08/20 06:10:18;;;;;;;7.90;5.67;;;;;;;;;;5109130;28;20570;-65
2023/08/20 06:12:45;;;;;;;6.90;5.87;;;;;;;;;;5102346;28;21043;-64
2023/08/20 06:15:11;;;;;;;5.97;5.47;;;;;;;;;;5101273;28;20507;-64
2023/08/20 06:17:37;;;;;;;5.77;4.90;;;;;;;;;;5100959;28;20579;-64
2023/08/20 06:20:08;;;;;;;5.77;5.37;;;;;;;;;;5100620;28;20470;-64
2023/08/20 06:22:34;;;;;;;6.53;5.17;;;;;;;;;;5100322;28;20431;-64
2023/08/20 06:25:01;;;;;;;7.40;5.40;;;;;;;;;;5100195;28;20616;-64
2023/08/20 06:27:27;;;;;;;7.07;5.23;;;;;;;;;;5099743;28;20570;-64
2023/08/20 06:29:53;;;;;;;6.60;5.40;;;;;;;;;;5099376;28;20550;-64
2023/08/20 06:32:20;;;;;;;6.53;5.13;;;;;;;;;;5099844;28;20989;-66
2023/08/20 06:34:46;;;;;;;6.60;5.03;;;;;;;;;;5100007;28;20496;-66
2023/08/20 06:37:14;;;;;;;6.30;5.00;;;;;;;;;;5093082;28;20491;-66
2023/08/20 06:39:40;;;;;;;6.03;4.80;;;;;;;;;;5097689;28;20475;-66
2023/08/20 06:42:07;;;;;;;9.90;5.90;;;;;;;;;;5099433;28;20501;-66
2023/08/20 06:44:35;;;;;;;6.80;5.73;;;;;;;;;;5099097;28;20531;-66
2023/08/20 06:47:01;;;;;;;9.73;6.73;;;;;;;;;;5103911;28;20450;-66
2023/08/20 06:49:27;;;;;;;9.87;6.40;;;;;;;;;;5099241;28;20558;-66
2023/08/20 06:51:54;;;;;;;6.57;6.07;;;;;;;;;;5100575;28;20514;-66
2023/08/20 06:54:22;;;;;;;6.40;5.77;;;;;;;;;;5099658;28;20577;-66
2023/08/20 06:56:49;;;;;;;7.37;6.40;;;;;;;;;;5099873;28;20928;-66
2023/08/20 06:59:16;;;;;;;8.13;6.20;;;;;;;;;;5099202;28;20733;-67
2023/08/20 07:01:42;;;;;;;7.60;6.27;;;;;;;;;;5099769;28;20554;-67
2023/08/20 07:04:09;;;;;;;7.10;6.40;;;;;;;;;;5099025;28;20485;-67
2023/08/20 07:06:35;;;;;;;7.07;6.00;;;;;;;;;;5099457;28;20527;-67
2023/08/20 07:09:03;;;;;;;7.00;6.30;;;;;;;;;;5095635;28;20497;-67
2023/08/20 07:11:31;;;;;;;7.60;6.90;;;;;;;;;;5099154;28;20459;-68
2023/08/20 07:13:57;;;;;;;7.33;6.60;;;;;;;;;;5098085;28;20523;-66
2023/08/20 07:16:24;;;;;;;11.30;7.03;;;;;;;;;;5099015;28;20791;-66
2023/08/20 07:18:50;;;;;;;8.10;7.50;;;;;;;;;;5099563;28;20831;-66
2023/08/20 07:21:16;;;;;;;9.60;7.23;;;;;;;;;;5099550;28;20881;-66
2023/08/20 07:23:43;;;;;;;7.33;6.60;;;;;;;;;;5099175;28;20482;-66
2023/08/20 07:26:12;;;;;;;7.80;7.00;;;;;;;;;;5104194;28;20537;-66
2023/08/20 07:28:59;;;;;;;9.50;6.97;;;;;;;;;;5092872;28;20483;-66
2023/08/20 07:31:26;;;;;;;7.37;6.57;;;;;;;;;;5098524;28;20508;-66
2023/08/20 07:33:53;;;;;;;7.93;7.30;;;;;;;;;;5099396;28;20478;-66
2023/08/20 07:36:21;;;;;;;7.37;6.67;;;;;;;;;;5099888;28;20473;-67
2023/08/20 07:38:48;;;;;;;7.60;6.40;;;;;;;;;;5099326;28;20865;-66
2023/08/20 07:41:14;;;;;;;8.50;6.90;;;;;;;;;;5101343;28;20478;-66
2023/08/20 07:43:42;;;;;;;7.07;6.43;;;;;;;;;;5101224;28;20459;-66
2023/08/20 07:46:09;;;;;;;7.83;7.23;;;;;;;;;;5100028;28;20463;-67
2023/08/20 07:48:36;;;;;;;9.17;8.33;;;;;;;;;;5099270;28;20559;-66
2023/08/20 07:51:02;;;;;;;10.00;7.50;;;;;;;;;;5102598;28;20557;-67
2023/08/20 07:53:29;;;;;;;9.57;8.27;;;;;;;;;;5097922;28;20427;-66
2023/08/20 07:55:55;;;;;;;11.13;9.93;;;;;;;;;;5097719;28;20439;-66
2023/08/20 07:58:22;;;;;;;10.07;9.07;;;;;;;;;;5097480;28;20547;-66
2023/08/20 08:00:49;;;;;;;10.63;9.03;;;;;;;;;;5101002;28;20496;-67
2023/08/20 08:03:16;;;;;;;10.53;9.63;;;;;;;;;;5093969;28;20490;-68
2023/08/20 08:05:46;;;;;;;10.83;9.77;;;;;;;;;;5098510;28;20465;-67
2023/08/20 08:08:13;;;;;;;10.00;9.10;;;;;;;;;;5100978;28;20541;-68
2023/08/20 08:10:39;;;;;;;9.43;8.07;;;;;;;;;;5100932;28;20500;-67
2023/08/20 08:13:05;;;;;;;9.80;8.90;;;;;;;;;;5100775;28;20946;-67
2023/08/20 08:15:32;;;;;;;10.17;9.00;;;;;;;;;;5101591;28;20459;-67
2023/08/20 08:18:00;;;;;;;8.53;7.83;;;;;;;;;;5103561;28;20450;-67
2023/08/20 08:20:26;;;;;;;12.70;11.43;;;;;;;;;;5101993;28;20478;-67
2023/08/20 08:22:52;;;;;;;13.17;12.07;;;;;;;;;;5100745;28;20521;-67
2023/08/20 08:25:19;;;;;;;12.60;11.40;;;;;;;;;;5098871;28;20514;-71
2023/08/20 08:27:46;;;;;;;15.13;13.70;;;;;;;;;;5110257;28;20545;-70
2023/08/20 08:30:12;;;;;;;12.17;11.17;;;;;;;;;;5102924;28;20478;-68
2023/08/20 08:32:38;;;;;;;12.07;11.07;;;;;;;;;;5106886;28;20534;-70
2023/08/20 08:35:07;;;;;;;13.50;12.17;;;;;;;;;;5104520;28;20987;-67
2023/08/20 08:37:33;;;;;;;12.53;11.43;;;;;;;;;;5101393;28;20486;-67
2023/08/20 08:40:00;;;;;;;13.10;11.80;;;;;;;;;;5100684;28;20522;-67
2023/08/20 08:42:26;;;;;;;12.07;11.07;;;;;;;;;;5095490;28;20484;-69
2023/08/20 08:44:53;;;;;;;11.50;10.30;;;;;;;;;;5100045;28;20486;-67
2023/08/20 08:47:20;;;;;;;10.17;9.33;;;;;;;;;;5100301;28;21063;-67
2023/08/20 08:49:47;;;;;;;11.57;10.60;;;;;;;;;;5100764;28;20586;-68
2023/08/20 08:52:15;;;;;;;10.80;9.90;;;;;;;;;;5101081;28;20497;-68
2023/08/20 08:54:42;;;;;;;11.53;10.53;;;;;;;;;;5100446;28;20494;-66
2023/08/20 08:57:09;;;;;;;9.97;9.10;;;;;;;;;;5096422;28;20926;-68
2023/08/20 08:59:35;;;;;;;10.53;9.60;;;;;;;;;;5101153;28;20786;-68
2023/08/20 09:02:02;;;;;;;9.43;8.53;;;;;;;;;;5099832;28;20518;-72
2023/08/20 09:04:28;;;;;;;10.27;9.57;;;;;;;;;;5100808;28;20837;-71
2023/08/20 09:06:57;;;;;;;10.43;9.47;;;;;;;;;;5101114;28;20479;-71
2023/08/20 09:09:30;;;;;;;8.70;8.00;;;;;;;;;;5100346;28;20459;-71
2023/08/20 09:11:56;;;;;;;9.33;8.63;;;;;;;;;;5100098;28;20478;-73
2023/08/20 09:14:23;;;;;;;10.20;9.30;;;;;;;;;;5100136;28;20518;-72
2023/08/20 09:16:54;;;;;;;12.37;9.90;;;;;;;;;;5096826;28;20478;-72
2023/08/20 09:19:21;;;;;;;11.30;10.30;;;;;;;;;;5100370;28;20522;-71
2023/08/20 09:21:48;;;;;;;12.23;11.03;;;;;;;;;;5099670;28;20447;-71
2023/08/20 09:24:14;;;;;;;11.47;10.33;;;;;;;;;;5100125;28;20459;-70
2023/08/20 09:26:45;;;;;;;11.00;10.10;;;;;;;;;;5099960;28;21073;-70
2023/08/20 09:29:12;;;;;;;11.23;10.33;;;;;;;;;;5103260;28;20486;-71
2023/08/20 09:31:39;;;;;;;10.33;9.37;;;;;;;;;;5101017;28;20479;-70
2023/08/20 09:34:06;;;;;;;10.80;9.90;;;;;;;;;;5099980;28;20466;-69
2023/08/20 09:36:33;;;;;;;9.80;9.00;;;;;;;;;;5099190;28;20451;-67
2023/08/20 09:38:59;;;;;;;10.10;9.20;;;;;;;;;;5098720;28;20489;-68
2023/08/20 09:41:26;;;;;;;9.13;8.37;;;;;;;;;;5098695;28;20447;-68
2023/08/20 09:43:56;;;;;;;10.40;9.50;;;;;;;;;;5098145;28;20546;-68
2023/08/20 09:46:24;;;;;;;11.10;10.10;;;;;;;;;;5099329;28;20498;-68
2023/08/20 09:48:51;;;;;;;10.00;9.20;;;;;;;;;;5099215;28;20447;-68
2023/08/20 09:51:20;;;;;;;9.90;9.00;;;;;;;;;;5099014;28;20483;-68
2023/08/20 09:53:51;;;;;;;8.67;7.87;;;;;;;;;;5097769;28;20478;-68
2023/08/20 09:56:22;;;;;;;8.20;7.60;;;;;;;;;;5099572;28;20451;-68
2023/08/20 09:58:49;;;;;;;9.10;8.20;;;;;;;;;;5098555;28;20490;-65
2023/08/20 10:01:17;;;;;;;8.60;8.00;;;;;;;;;;5099069;28;20467;-69
2023/08/20 10:03:44;;;;;;;7.73;7.13;;;;;;;;;;5099595;28;20459;-67
2023/08/20 10:06:11;;;;;;;8.40;7.70;;;;;;;;;;5097706;28;20546;-68
2023/08/20 10:08:38;;;;;;;8.30;7.70;;;;;;;;;;5098516;28;20466;-67
2023/08/20 10:11:05;;;;;;;7.97;7.27;;;;;;;;;;5105034;28;20471;-69
2023/08/20 10:13:32;;;;;;;7.73;7.03;;;;;;;;;;5100808;28;20487;-68
2023/08/20 10:15:58;;;;;;;7.73;5.80;;;;;;;;;;5097878;28;20469;-68
2023/08/20 10:18:27;;;;;;;6.20;5.67;;;;;;;;;;5105698;28;20451;-69
2023/08/20 10:20:53;;;;;;;6.60;6.20;;;;;;;;;;5099479;28;20485;-69
2023/08/20 10:23:21;;;;;;;6.70;6.10;;;;;;;;;;5098243;28;20462;-69
2023/08/20 10:25:48;;;;;;;6.17;5.67;;;;;;;;;;5097539;28;20474;-69
2023/08/20 10:28:15;;;;;;;6.00;5.40;;;;;;;;;;5097898;28;20866;-67
2023/08/20 10:30:56;;;;;;;6.83;6.23;;;;;;;;;;5094184;28;20490;-68
2023/08/20 10:33:23;;;;;;;6.60;6.10;;;;;;;;;;5099628;28;20971;-67
2023/08/20 10:35:51;;;;;;;6.33;5.93;;;;;;;;;;5103018;28;20494;-70
2023/08/20 10:38:18;;;;;;;6.50;6.00;;;;;;;;;;5100619;28;20929;-66
2023/08/20 10:40:48;;;;;;;6.53;5.93;;;;;;;;;;5099342;28;20431;-69
2023/08/20 10:43:24;;;;;;;6.47;5.90;;;;;;;;;;5099134;28;20554;-63
2023/08/20 10:46:03;;;;;;;5.80;5.30;;;;;;;;;;5095402;28;20593;-63
2023/08/20 10:48:30;;;;;;;6.03;5.63;;;;;;;;;;5098278;28;20463;-64
2023/08/20 10:50:58;;;;;;;7.50;6.90;;;;;;;;;;5098159;28;20483;-63
2023/08/20 10:53:25;;;;;;;7.37;6.70;;;;;;;;;;5097214;28;20446;-63
2023/08/20 10:55:51;;;;;;;7.20;6.70;;;;;;;;;;5097549;28;20539;-63
2023/08/20 10:58:18;;;;;;;7.23;6.73;;;;;;;;;;5096230;28;20455;-63
2023/08/20 11:00:44;;;;;;;6.80;6.40;;;;;;;;;;5097600;28;20478;-63
2023/08/20 11:03:11;;;;;;;6.87;6.30;;;;;;;;;;5097754;28;20481;-63
2023/08/20 11:05:37;;;;;;;7.47;6.90;;;;;;;;;;5097135;28;20740;-63
2023/08/20 11:08:07;;;;;;;6.83;6.23;;;;;;;;;;5096755;28;20447;-63
2023/08/20 11:10:34;;;;;;;7.73;6.73;;;;;;;;;;5103262;28;20485;-64
2023/08/20 11:13:03;;;;;;;7.53;7.00;;;;;;;;;;5096848;28;20467;-73
2023/08/20 11:15:29;;;;;;;8.40;7.80;;;;;;;;;;5089371;28;20979;-64
2023/08/20 11:17:56;;;;;;;8.47;7.87;;;;;;;;;;5097058;28;20786;-64
2023/08/20 11:20:22;;;;;;;8.17;7.47;;;;;;;;;;5098440;28;20522;-67
2023/08/20 11:22:48;;;;;;;8.37;7.67;;;;;;;;;;5097873;28;20496;-64
2023/08/20 11:25:16;;;;;;;8.10;7.50;;;;;;;;;;5098418;28;20546;-63
2023/08/20 11:27:43;;;;;;;7.80;7.20;;;;;;;;;;5099732;28;20673;-64
2023/08/20 11:30:11;;;;;;;7.50;6.80;;;;;;;;;;5097386;28;20531;-67
2023/08/20 11:32:38;;;;;;;7.50;6.90;;;;;;;;;;5098287;28;20504;-64
2023/08/20 11:35:05;;;;;;;7.23;6.73;;;;;;;;;;5100525;28;20549;-64
2023/08/20 11:37:31;;;;;;;7.00;6.47;;;;;;;;;;5097264;28;20959;-65
2023/08/20 11:39:58;;;;;;;7.90;7.30;;;;;;;;;;5099434;28;20474;-66
2023/08/20 11:42:26;;;;;;;9.30;7.20;;;;;;;;;;5101835;28;20451;-66
2023/08/20 11:44:56;;;;;;;7.60;7.10;;;;;;;;;;5101889;28;20459;-65
2023/08/20 11:47:22;;;;;;;8.57;7.87;;;;;;;;;;5102373;28;20474;-65
2023/08/20 11:49:48;;;;;;;7.83;7.23;;;;;;;;;;5101161;28;20485;-65
2023/08/20 11:52:17;;;;;;;7.13;6.70;;;;;;;;;;5100483;28;20502;-65
2023/08/20 11:54:43;;;;;;;8.20;7.40;;;;;;;;;;5101715;28;20534;-65
2023/08/20 11:57:10;;;;;;;8.40;7.90;;;;;;;;;;5102010;28;20485;-65
2023/08/20 11:59:38;;;;;;;9.20;8.10;;;;;;;;;;5100555;28;20970;-64
2023/08/20 12:02:04;;;;;;;7.97;7.13;;;;;;;;;;5101918;28;20455;-65
2023/08/20 12:04:31;;;;;;;12.60;8.77;;;;;;;;;;5099753;28;20915;-65
2023/08/20 12:07:05;;;;;;;8.70;8.00;;;;;;;;;;5101016;28;20450;-65
2023/08/20 12:09:31;;;;;;;7.80;7.30;;;;;;;;;;5101792;28;20519;-65
2023/08/20 12:11:58;;;;;;;8.33;7.63;;;;;;;;;;5100535;28;20479;-64
2023/08/20 12:14:24;;;;;;;8.93;8.23;;;;;;;;;;5100032;28;20482;-64
2023/08/20 12:16:54;;;;;;;8.73;7.97;;;;;;;;;;5101559;28;20511;-64
2023/08/20 12:19:20;;;;;;;9.53;8.73;;;;;;;;;;5101811;28;20911;-65
2023/08/20 12:21:47;;;;;;;8.23;7.53;;;;;;;;;;5101314;28;20470;-65
2023/08/20 12:24:13;;;;;;;8.17;7.67;;;;;;;;;;5101733;28;20508;-65
2023/08/20 12:26:40;;;;;;;9.17;8.37;;;;;;;;;;5106993;28;20450;-65
2023/08/20 12:29:07;;;;;;;9.77;8.83;;;;;;;;;;5100837;28;20506;-64
2023/08/20 12:31:33;;;;;;;8.73;8.03;;;;;;;;;;5101820;28;20821;-65
2023/08/20 12:34:02;;;;;;;8.83;8.10;;;;;;;;;;5098360;28;20655;-65
2023/08/20 12:36:28;;;;;;;9.13;8.40;;;;;;;;;;5101197;28;20459;-64
2023/08/20 12:38:55;;;;;;;9.40;8.60;;;;;;;;;;5101113;28;20522;-65
2023/08/20 12:41:22;;;;;;;10.10;9.40;;;;;;;;;;5101505;28;20434;-64
2023/08/20 12:43:48;;;;;;;9.23;8.47;;;;;;;;;;5099665;28;20877;-64
2023/08/20 12:46:14;;;;;;;9.97;9.17;;;;;;;;;;5101671;28;20447;-65
2023/08/20 12:48:41;;;;;;;9.13;8.40;;;;;;;;;;5101400;28;20447;-64
2023/08/20 12:51:13;;;;;;;9.27;8.47;;;;;;;;;;5100616;28;20537;-65
2023/08/20 12:53:39;;;;;;;8.90;8.10;;;;;;;;;;5104719;28;20450;-64
2023/08/20 12:56:06;;;;;;;8.47;7.77;;;;;;;;;;5100944;28;20455;-65
2023/08/20 12:58:32;;;;;;;8.67;7.87;;;;;;;;;;5100383;28;20493;-64
2023/08/20 13:00:59;;;;;;;9.60;8.00;;;;;;;;;;5099968;28;20454;-64
2023/08/20 13:03:25;;;;;;;8.63;7.83;;;;;;;;;;5101500;28;20443;-64
2023/08/20 13:05:52;;;;;;;7.33;6.77;;;;;;;;;;5109078;28;20459;-64
2023/08/20 13:08:20;;;;;;;8.83;8.13;;;;;;;;;;5101142;28;20514;-64
2023/08/20 13:10:49;;;;;;;8.83;8.13;;;;;;;;;;5101315;28;20535;-64
2023/08/20 13:13:16;;;;;;;9.27;8.53;;;;;;;;;;5104143;28;20478;-64
2023/08/20 13:15:43;;;;;;;7.50;6.80;;;;;;;;;;5105787;28;20466;-64
2023/08/20 13:18:10;;;;;;;8.50;7.90;;;;;;;;;;5095691;28;20478;-64
2023/08/20 13:20:36;;;;;;;8.03;7.37;;;;;;;;;;5089734;28;20451;-64
2023/08/20 13:23:03;;;;;;;7.80;7.00;;;;;;;;;;5103356;28;20454;-64
2023/08/20 13:25:30;;;;;;;8.10;7.33;;;;;;;;;;5100938;28;20483;-64
2023/08/20 13:27:57;;;;;;;8.20;7.60;;;;;;;;;;5100001;28;20561;-64
2023/08/20 13:30:23;;;;;;;7.77;7.27;;;;;;;;;;5100317;28;20467;-64
2023/08/20 13:32:50;;;;;;;7.80;7.10;;;;;;;;;;5100080;28;20530;-64
2023/08/20 13:35:16;;;;;;;8.40;7.60;;;;;;;;;;5099326;28;20477;-64
2023/08/20 13:37:43;;;;;;;8.13;7.53;;;;;;;;;;5100692;28;20466;-64
2023/08/20 13:40:10;;;;;;;7.20;6.70;;;;;;;;;;5100804;28;20484;-64
2023/08/20 13:42:38;;;;;;;8.23;7.43;;;;;;;;;;5099242;28;20499;-64
2023/08/20 13:45:05;;;;;;;8.33;7.67;;;;;;;;;;5100243;28;20519;-64
2023/08/20 13:47:31;;;;;;;9.43;8.77;;;;;;;;;;5100490;28;20462;-64
2023/08/20 13:49:58;;;;;;;8.20;7.50;;;;;;;;;;5099855;28;20467;-64
2023/08/20 13:52:24;;;;;;;9.27;8.17;;;;;;;;;;5100430;28;20874;-64
2023/08/20 13:54:51;;;;;;;8.83;8.13;;;;;;;;;;5099995;28;20459;-64
2023/08/20 13:57:17;;;;;;;8.50;7.90;;;;;;;;;;5101597;28;20466;-64
2023/08/20 13:59:45;;;;;;;8.80;8.10;;;;;;;;;;5098248;28;20457;-64
2023/08/20 14:02:12;;;;;;;10.00;9.00;;;;;;;;;;5099067;28;20449;-65
2023/08/20 14:04:38;;;;;;;10.13;9.33;;;;;;;;;;5098648;28;20462;-64
2023/08/20 14:07:05;;;;;;;9.27;8.57;;;;;;;;;;5105691;28;20485;-64
2023/08/20 14:09:31;;;;;;;9.37;8.63;;;;;;;;;;5104079;28;20514;-64
2023/08/20 14:11:57;;;;;;;10.20;9.30;;;;;;;;;;5105692;28;20570;-64
2023/08/20 14:14:24;;;;;;;9.50;8.80;;;;;;;;;;5099055;28;20929;-64
2023/08/20 14:16:51;;;;;;;9.70;9.00;;;;;;;;;;5099027;28;20519;-64
2023/08/20 14:19:18;;;;;;;9.53;8.83;;;;;;;;;;5100048;28;20477;-64
2023/08/20 14:21:44;;;;;;;9.80;9.10;;;;;;;;;;5099892;28;20477;-64
2023/08/20 14:24:11;;;;;;;9.53;8.83;;;;;;;;;;5099510;28;20541;-64
2023/08/20 14:26:37;;;;;;;9.10;8.40;;;;;;;;;;5098722;28;20443;-64
2023/08/20 14:29:04;;;;;;;9.37;8.60;;;;;;;;;;5099207;28;20930;-64
2023/08/20 14:31:31;;;;;;;9.60;8.80;;;;;;;;;;5099205;28;20764;-64
2023/08/20 14:33:59;;;;;;;9.33;8.63;;;;;;;;;;5098833;28;20534;-64